sensor_id;sensor_type;location;lat;lon;timestamp;P1;durP1;ratioP1;P2;durP2;ratioP2
11203;SDS011;5659;49.408;11.116;2022-08-01T00:01:56;4.63;;;3.00;;
11203;SDS011;5659;49.408;11.116;2022-08-01T00:04:22;4.72;;;2.95;;
11203;SDS011;5659;49.408;11.116;2022-08-01T00:06:48;4.32;;;2.50;;
11203;SDS011;5659;49.408;11.116;2022-08-01T00:09:14;5.38;;;2.88;;
11203;SDS011;5659;49.408;11.116;2022-08-01T00:11:40;4.57;;;2.55;;
11203;SDS011;5659;49.408;11.116;2022-08-01T00:14:06;4.53;;;2.97;;
11203;SDS011;5659;49.408;11.116;2022-08-01T00:16:34;6.55;;;3.08;;
11203;SDS011;5659;49.408;11.116;2022-08-01T00:19:00;4.07;;;2.90;;
11203;SDS011;5659;49.408;11.116;2022-08-01T00:21:26;7.78;;;2.78;;
11203;SDS011;5659;49.408;11.116;2022-08-01T00:23:52;5.65;;;2.88;;
11203;SDS011;5659;49.408;11.116;2022-08-01T00:26:18;4.78;;;2.97;;
11203;SDS011;5659;49.408;11.116;2022-08-01T00:28:44;6.25;;;3.00;;
11203;SDS011;5659;49.408;11.116;2022-08-01T00:31:10;3.30;;;2.90;;
11203;SDS011;5659;49.408;11.116;2022-08-01T00:33:36;7.30;;;2.90;;
11203;SDS011;5659;49.408;11.116;2022-08-01T00:36:02;4.10;;;2.45;;
11203;SDS011;5659;49.408;11.116;2022-08-01T00:38:28;4.85;;;3.40;;
11203;SDS011;5659;49.408;11.116;2022-08-01T00:40:54;6.93;;;2.88;;
11203;SDS011;5659;49.408;11.116;2022-08-01T00:43:20;4.18;;;3.45;;
11203;SDS011;5659;49.408;11.116;2022-08-01T00:45:46;5.30;;;3.20;;
11203;SDS011;5659;49.408;11.116;2022-08-01T00:48:12;5.15;;;3.17;;
11203;SDS011;5659;49.408;11.116;2022-08-01T00:50:39;5.25;;;3.20;;
11203;SDS011;5659;49.408;11.116;2022-08-01T00:53:05;4.93;;;2.97;;
11203;SDS011;5659;49.408;11.116;2022-08-01T00:55:31;3.83;;;2.95;;
11203;SDS011;5659;49.408;11.116;2022-08-01T00:57:57;6.65;;;3.05;;
11203;SDS011;5659;49.408;11.116;2022-08-01T01:00:24;6.53;;;3.38;;
11203;SDS011;5659;49.408;11.116;2022-08-01T01:02:50;5.25;;;3.50;;
11203;SDS011;5659;49.408;11.116;2022-08-01T01:05:16;6.78;;;3.63;;
11203;SDS011;5659;49.408;11.116;2022-08-01T01:10:48;4.88;;;3.35;;
11203;SDS011;5659;49.408;11.116;2022-08-01T01:13:23;6.50;;;3.85;;
11203;SDS011;5659;49.408;11.116;2022-08-01T01:15:59;19.08;;;4.63;;
11203;SDS011;5659;49.408;11.116;2022-08-01T01:19:00;9.90;;;4.50;;
11203;SDS011;5659;49.408;11.116;2022-08-01T01:23:45;10.63;;;4.45;;
11203;SDS011;5659;49.408;11.116;2022-08-01T01:29:00;6.88;;;3.80;;
11203;SDS011;5659;49.408;11.116;2022-08-01T01:31:27;10.60;;;4.03;;
11203;SDS011;5659;49.408;11.116;2022-08-01T01:33:55;7.97;;;3.50;;
11203;SDS011;5659;49.408;11.116;2022-08-01T01:36:23;10.02;;;3.83;;
11203;SDS011;5659;49.408;11.116;2022-08-01T01:38:51;8.45;;;3.50;;
11203;SDS011;5659;49.408;11.116;2022-08-01T01:41:18;7.65;;;3.47;;
11203;SDS011;5659;49.408;11.116;2022-08-01T01:43:46;7.30;;;3.33;;
11203;SDS011;5659;49.408;11.116;2022-08-01T01:46:12;4.93;;;3.30;;
11203;SDS011;5659;49.408;11.116;2022-08-01T01:48:38;4.53;;;3.22;;
11203;SDS011;5659;49.408;11.116;2022-08-01T01:51:05;5.72;;;3.78;;
11203;SDS011;5659;49.408;11.116;2022-08-01T01:53:32;11.20;;;3.97;;
11203;SDS011;5659;49.408;11.116;2022-08-01T01:55:58;5.85;;;3.47;;
11203;SDS011;5659;49.408;11.116;2022-08-01T01:58:25;4.45;;;3.30;;
11203;SDS011;5659;49.408;11.116;2022-08-01T02:00:52;5.07;;;2.83;;
11203;SDS011;5659;49.408;11.116;2022-08-01T02:03:18;5.20;;;3.20;;
11203;SDS011;5659;49.408;11.116;2022-08-01T02:05:45;5.30;;;3.60;;
11203;SDS011;5659;49.408;11.116;2022-08-01T02:08:13;9.80;;;3.70;;
11203;SDS011;5659;49.408;11.116;2022-08-01T02:10:40;5.57;;;3.50;;
11203;SDS011;5659;49.408;11.116;2022-08-01T02:13:06;4.93;;;3.45;;
11203;SDS011;5659;49.408;11.116;2022-08-01T02:15:33;5.38;;;3.38;;
11203;SDS011;5659;49.408;11.116;2022-08-01T02:18:03;7.40;;;3.55;;
11203;SDS011;5659;49.408;11.116;2022-08-01T02:20:29;8.02;;;3.83;;
11203;SDS011;5659;49.408;11.116;2022-08-01T02:22:58;6.13;;;3.42;;
11203;SDS011;5659;49.408;11.116;2022-08-01T02:25:31;4.13;;;3.20;;
11203;SDS011;5659;49.408;11.116;2022-08-01T02:28:03;4.18;;;3.15;;
11203;SDS011;5659;49.408;11.116;2022-08-01T02:30:32;5.75;;;3.25;;
11203;SDS011;5659;49.408;11.116;2022-08-01T02:33:02;5.30;;;3.28;;
11203;SDS011;5659;49.408;11.116;2022-08-01T02:35:29;8.30;;;3.17;;
11203;SDS011;5659;49.408;11.116;2022-08-01T02:37:57;4.53;;;3.40;;
11203;SDS011;5659;49.408;11.116;2022-08-01T02:40:23;7.75;;;3.45;;
11203;SDS011;5659;49.408;11.116;2022-08-01T02:42:52;7.75;;;3.30;;
11203;SDS011;5659;49.408;11.116;2022-08-01T02:45:20;3.70;;;3.00;;
11203;SDS011;5659;49.408;11.116;2022-08-01T02:47:48;4.80;;;3.20;;
11203;SDS011;5659;49.408;11.116;2022-08-01T02:50:15;4.72;;;3.45;;
11203;SDS011;5659;49.408;11.116;2022-08-01T02:52:41;7.00;;;3.47;;
11203;SDS011;5659;49.408;11.116;2022-08-01T02:55:08;6.72;;;3.10;;
11203;SDS011;5659;49.408;11.116;2022-08-01T02:57:34;10.50;;;4.18;;
11203;SDS011;5659;49.408;11.116;2022-08-01T03:00:03;6.68;;;3.38;;
11203;SDS011;5659;49.408;11.116;2022-08-01T03:02:30;4.80;;;3.33;;
11203;SDS011;5659;49.408;11.116;2022-08-01T03:04:56;7.80;;;4.15;;
11203;SDS011;5659;49.408;11.116;2022-08-01T03:07:23;4.10;;;3.70;;
11203;SDS011;5659;49.408;11.116;2022-08-01T03:09:49;4.53;;;3.55;;
11203;SDS011;5659;49.408;11.116;2022-08-01T03:12:17;7.93;;;4.07;;
11203;SDS011;5659;49.408;11.116;2022-08-01T03:14:44;11.05;;;4.45;;
11203;SDS011;5659;49.408;11.116;2022-08-01T03:17:11;8.65;;;4.05;;
11203;SDS011;5659;49.408;11.116;2022-08-01T03:19:38;6.35;;;4.20;;
11203;SDS011;5659;49.408;11.116;2022-08-01T03:22:08;12.40;;;3.83;;
11203;SDS011;5659;49.408;11.116;2022-08-01T03:24:36;6.18;;;3.72;;
11203;SDS011;5659;49.408;11.116;2022-08-01T03:27:03;4.50;;;3.67;;
11203;SDS011;5659;49.408;11.116;2022-08-01T03:29:29;5.00;;;3.90;;
11203;SDS011;5659;49.408;11.116;2022-08-01T03:31:57;5.00;;;3.90;;
11203;SDS011;5659;49.408;11.116;2022-08-01T03:34:24;3.70;;;3.40;;
11203;SDS011;5659;49.408;11.116;2022-08-01T03:36:55;7.15;;;4.10;;
11203;SDS011;5659;49.408;11.116;2022-08-01T03:39:30;6.95;;;4.20;;
11203;SDS011;5659;49.408;11.116;2022-08-01T03:42:01;6.28;;;4.10;;
11203;SDS011;5659;49.408;11.116;2022-08-01T03:44:31;8.25;;;4.10;;
11203;SDS011;5659;49.408;11.116;2022-08-01T03:46:59;7.22;;;4.22;;
11203;SDS011;5659;49.408;11.116;2022-08-01T03:49:29;6.88;;;3.95;;
11203;SDS011;5659;49.408;11.116;2022-08-01T03:51:55;4.45;;;4.05;;
11203;SDS011;5659;49.408;11.116;2022-08-01T03:54:24;7.65;;;4.05;;
11203;SDS011;5659;49.408;11.116;2022-08-01T03:56:50;6.32;;;4.28;;
11203;SDS011;5659;49.408;11.116;2022-08-01T03:59:17;5.75;;;4.20;;
11203;SDS011;5659;49.408;11.116;2022-08-01T04:01:44;6.38;;;4.30;;
11203;SDS011;5659;49.408;11.116;2022-08-01T04:04:11;5.50;;;4.03;;
11203;SDS011;5659;49.408;11.116;2022-08-01T04:06:37;7.10;;;3.88;;
11203;SDS011;5659;49.408;11.116;2022-08-01T04:09:04;6.88;;;4.22;;
11203;SDS011;5659;49.408;11.116;2022-08-01T04:11:30;4.40;;;4.00;;
11203;SDS011;5659;49.408;11.116;2022-08-01T04:13:56;6.43;;;3.67;;
11203;SDS011;5659;49.408;11.116;2022-08-01T04:16:22;5.03;;;4.30;;
11203;SDS011;5659;49.408;11.116;2022-08-01T04:18:48;3.67;;;3.38;;
11203;SDS011;5659;49.408;11.116;2022-08-01T04:21:14;5.28;;;3.85;;
11203;SDS011;5659;49.408;11.116;2022-08-01T04:23:43;6.00;;;3.95;;
11203;SDS011;5659;49.408;11.116;2022-08-01T04:26:11;6.43;;;3.78;;
11203;SDS011;5659;49.408;11.116;2022-08-01T04:28:38;4.97;;;3.58;;
11203;SDS011;5659;49.408;11.116;2022-08-01T04:31:06;8.57;;;3.90;;
11203;SDS011;5659;49.408;11.116;2022-08-01T04:33:34;3.88;;;3.20;;
11203;SDS011;5659;49.408;11.116;2022-08-01T04:36:04;5.45;;;3.63;;
11203;SDS011;5659;49.408;11.116;2022-08-01T04:38:32;5.72;;;3.90;;
11203;SDS011;5659;49.408;11.116;2022-08-01T04:40:58;5.10;;;3.40;;
11203;SDS011;5659;49.408;11.116;2022-08-01T04:43:26;5.38;;;3.50;;
11203;SDS011;5659;49.408;11.116;2022-08-01T04:45:52;4.20;;;3.50;;
11203;SDS011;5659;49.408;11.116;2022-08-01T04:48:19;3.47;;;3.10;;
11203;SDS011;5659;49.408;11.116;2022-08-01T04:50:46;5.55;;;3.75;;
11203;SDS011;5659;49.408;11.116;2022-08-01T04:53:15;12.77;;;3.80;;
11203;SDS011;5659;49.408;11.116;2022-08-01T04:55:42;6.70;;;3.50;;
11203;SDS011;5659;49.408;11.116;2022-08-01T04:58:09;4.97;;;3.30;;
11203;SDS011;5659;49.408;11.116;2022-08-01T05:00:35;4.88;;;3.30;;
11203;SDS011;5659;49.408;11.116;2022-08-01T05:03:01;6.65;;;3.35;;
11203;SDS011;5659;49.408;11.116;2022-08-01T05:05:27;10.20;;;3.33;;
11203;SDS011;5659;49.408;11.116;2022-08-01T05:07:55;8.02;;;3.30;;
11203;SDS011;5659;49.408;11.116;2022-08-01T05:10:21;7.53;;;2.90;;
11203;SDS011;5659;49.408;11.116;2022-08-01T05:12:47;3.25;;;2.65;;
11203;SDS011;5659;49.408;11.116;2022-08-01T05:15:13;5.00;;;2.80;;
11203;SDS011;5659;49.408;11.116;2022-08-01T05:17:39;7.53;;;2.80;;
11203;SDS011;5659;49.408;11.116;2022-08-01T05:20:07;8.15;;;3.10;;
11203;SDS011;5659;49.408;11.116;2022-08-01T05:22:33;7.18;;;2.92;;
11203;SDS011;5659;49.408;11.116;2022-08-01T05:24:59;6.40;;;3.10;;
11203;SDS011;5659;49.408;11.116;2022-08-01T05:27:25;4.13;;;2.70;;
11203;SDS011;5659;49.408;11.116;2022-08-01T05:29:51;11.63;;;3.00;;
11203;SDS011;5659;49.408;11.116;2022-08-01T05:32:17;3.38;;;2.72;;
11203;SDS011;5659;49.408;11.116;2022-08-01T05:34:43;7.53;;;2.95;;
11203;SDS011;5659;49.408;11.116;2022-08-01T05:37:09;6.10;;;2.80;;
11203;SDS011;5659;49.408;11.116;2022-08-01T05:39:35;3.22;;;2.47;;
11203;SDS011;5659;49.408;11.116;2022-08-01T05:42:01;5.80;;;2.67;;
11203;SDS011;5659;49.408;11.116;2022-08-01T05:44:27;3.60;;;2.53;;
11203;SDS011;5659;49.408;11.116;2022-08-01T05:46:53;5.70;;;2.35;;
11203;SDS011;5659;49.408;11.116;2022-08-01T05:49:19;6.03;;;2.45;;
11203;SDS011;5659;49.408;11.116;2022-08-01T05:51:45;4.05;;;2.50;;
11203;SDS011;5659;49.408;11.116;2022-08-01T05:54:11;2.40;;;2.20;;
11203;SDS011;5659;49.408;11.116;2022-08-01T05:56:37;4.75;;;2.40;;
11203;SDS011;5659;49.408;11.116;2022-08-01T05:59:03;7.00;;;2.75;;
11203;SDS011;5659;49.408;11.116;2022-08-01T06:01:29;4.45;;;2.35;;
11203;SDS011;5659;49.408;11.116;2022-08-01T06:03:55;9.60;;;2.30;;
11203;SDS011;5659;49.408;11.116;2022-08-01T06:06:21;6.07;;;2.17;;
11203;SDS011;5659;49.408;11.116;2022-08-01T06:08:47;4.60;;;2.10;;
11203;SDS011;5659;49.408;11.116;2022-08-01T06:11:13;4.38;;;2.22;;
11203;SDS011;5659;49.408;11.116;2022-08-01T06:13:39;5.18;;;2.50;;
11203;SDS011;5659;49.408;11.116;2022-08-01T06:16:05;3.40;;;2.47;;
11203;SDS011;5659;49.408;11.116;2022-08-01T06:18:31;4.10;;;2.17;;
11203;SDS011;5659;49.408;11.116;2022-08-01T06:20:57;6.35;;;2.00;;
11203;SDS011;5659;49.408;11.116;2022-08-01T06:23:23;4.05;;;2.13;;
11203;SDS011;5659;49.408;11.116;2022-08-01T06:25:52;2.88;;;1.80;;
11203;SDS011;5659;49.408;11.116;2022-08-01T06:28:19;2.88;;;2.28;;
11203;SDS011;5659;49.408;11.116;2022-08-01T06:30:45;7.63;;;2.33;;
11203;SDS011;5659;49.408;11.116;2022-08-01T06:33:11;7.90;;;2.22;;
11203;SDS011;5659;49.408;11.116;2022-08-01T06:35:37;5.13;;;2.40;;
11203;SDS011;5659;49.408;11.116;2022-08-01T06:38:03;2.70;;;2.00;;
11203;SDS011;5659;49.408;11.116;2022-08-01T06:40:29;4.63;;;2.10;;
11203;SDS011;5659;49.408;11.116;2022-08-01T06:42:55;4.53;;;2.22;;
11203;SDS011;5659;49.408;11.116;2022-08-01T06:45:21;5.13;;;2.05;;
11203;SDS011;5659;49.408;11.116;2022-08-01T06:47:47;2.80;;;1.90;;
11203;SDS011;5659;49.408;11.116;2022-08-01T06:50:14;4.72;;;2.00;;
11203;SDS011;5659;49.408;11.116;2022-08-01T06:52:40;3.58;;;1.85;;
11203;SDS011;5659;49.408;11.116;2022-08-01T06:55:06;2.35;;;2.10;;
11203;SDS011;5659;49.408;11.116;2022-08-01T06:57:33;4.47;;;1.92;;
11203;SDS011;5659;49.408;11.116;2022-08-01T07:00:01;4.50;;;1.65;;
11203;SDS011;5659;49.408;11.116;2022-08-01T07:02:27;2.72;;;1.80;;
11203;SDS011;5659;49.408;11.116;2022-08-01T07:04:53;4.72;;;2.05;;
11203;SDS011;5659;49.408;11.116;2022-08-01T07:07:19;6.53;;;2.20;;
11203;SDS011;5659;49.408;11.116;2022-08-01T07:09:45;2.40;;;1.95;;
11203;SDS011;5659;49.408;11.116;2022-08-01T07:12:11;4.03;;;1.70;;
11203;SDS011;5659;49.408;11.116;2022-08-01T07:14:37;7.35;;;2.00;;
11203;SDS011;5659;49.408;11.116;2022-08-01T07:17:03;3.17;;;1.88;;
11203;SDS011;5659;49.408;11.116;2022-08-01T07:19:29;4.07;;;2.05;;
11203;SDS011;5659;49.408;11.116;2022-08-01T07:21:55;2.70;;;1.80;;
11203;SDS011;5659;49.408;11.116;2022-08-01T07:24:21;5.13;;;1.75;;
11203;SDS011;5659;49.408;11.116;2022-08-01T07:26:47;3.97;;;2.05;;
11203;SDS011;5659;49.408;11.116;2022-08-01T07:29:13;8.13;;;2.00;;
11203;SDS011;5659;49.408;11.116;2022-08-01T07:31:39;3.70;;;1.90;;
11203;SDS011;5659;49.408;11.116;2022-08-01T07:34:06;6.47;;;1.63;;
11203;SDS011;5659;49.408;11.116;2022-08-01T07:36:32;4.55;;;1.80;;
11203;SDS011;5659;49.408;11.116;2022-08-01T07:38:58;4.55;;;1.73;;
11203;SDS011;5659;49.408;11.116;2022-08-01T07:41:24;2.50;;;1.70;;
11203;SDS011;5659;49.408;11.116;2022-08-01T07:43:50;2.10;;;1.70;;
11203;SDS011;5659;49.408;11.116;2022-08-01T07:46:16;3.33;;;1.80;;
11203;SDS011;5659;49.408;11.116;2022-08-01T07:48:42;5.97;;;1.83;;
11203;SDS011;5659;49.408;11.116;2022-08-01T07:51:08;2.70;;;1.60;;
11203;SDS011;5659;49.408;11.116;2022-08-01T07:53:35;3.03;;;1.70;;
11203;SDS011;5659;49.408;11.116;2022-08-01T07:56:01;2.88;;;1.70;;
11203;SDS011;5659;49.408;11.116;2022-08-01T07:58:29;2.55;;;1.40;;
11203;SDS011;5659;49.408;11.116;2022-08-01T08:00:55;5.13;;;1.40;;
11203;SDS011;5659;49.408;11.116;2022-08-01T08:03:21;2.78;;;1.40;;
11203;SDS011;5659;49.408;11.116;2022-08-01T08:05:47;3.17;;;1.60;;
11203;SDS011;5659;49.408;11.116;2022-08-01T08:08:13;4.22;;;1.70;;
11203;SDS011;5659;49.408;11.116;2022-08-01T08:10:40;4.28;;;1.40;;
11203;SDS011;5659;49.408;11.116;2022-08-01T08:13:06;4.35;;;1.60;;
11203;SDS011;5659;49.408;11.116;2022-08-01T08:15:32;3.60;;;1.45;;
11203;SDS011;5659;49.408;11.116;2022-08-01T08:17:58;3.20;;;1.55;;
11203;SDS011;5659;49.408;11.116;2022-08-01T08:20:24;2.45;;;1.50;;
11203;SDS011;5659;49.408;11.116;2022-08-01T08:22:52;2.85;;;1.42;;
11203;SDS011;5659;49.408;11.116;2022-08-01T08:25:18;1.75;;;1.30;;
11203;SDS011;5659;49.408;11.116;2022-08-01T08:27:44;4.93;;;1.30;;
11203;SDS011;5659;49.408;11.116;2022-08-01T08:30:11;2.80;;;1.27;;
11203;SDS011;5659;49.408;11.116;2022-08-01T08:32:37;2.22;;;1.20;;
11203;SDS011;5659;49.408;11.116;2022-08-01T08:35:04;3.03;;;1.42;;
11203;SDS011;5659;49.408;11.116;2022-08-01T08:37:30;2.53;;;1.33;;
11203;SDS011;5659;49.408;11.116;2022-08-01T08:39:56;2.10;;;1.50;;
11203;SDS011;5659;49.408;11.116;2022-08-01T08:42:22;4.90;;;1.50;;
11203;SDS011;5659;49.408;11.116;2022-08-01T08:44:48;4.43;;;1.60;;
11203;SDS011;5659;49.408;11.116;2022-08-01T08:47:14;3.08;;;1.40;;
11203;SDS011;5659;49.408;11.116;2022-08-01T08:49:44;4.25;;;1.60;;
11203;SDS011;5659;49.408;11.116;2022-08-01T08:52:10;3.20;;;1.85;;
11203;SDS011;5659;49.408;11.116;2022-08-01T08:54:39;4.53;;;1.80;;
11203;SDS011;5659;49.408;11.116;2022-08-01T08:57:06;3.47;;;1.63;;
11203;SDS011;5659;49.408;11.116;2022-08-01T08:59:32;3.28;;;1.58;;
11203;SDS011;5659;49.408;11.116;2022-08-01T09:01:58;5.25;;;1.90;;
11203;SDS011;5659;49.408;11.116;2022-08-01T09:04:25;3.65;;;1.63;;
11203;SDS011;5659;49.408;11.116;2022-08-01T09:06:52;2.45;;;1.50;;
11203;SDS011;5659;49.408;11.116;2022-08-01T09:09:17;4.30;;;1.48;;
11203;SDS011;5659;49.408;11.116;2022-08-01T09:11:43;3.75;;;1.60;;
11203;SDS011;5659;49.408;11.116;2022-08-01T09:14:11;1.42;;;1.33;;
11203;SDS011;5659;49.408;11.116;2022-08-01T09:16:41;2.42;;;1.48;;
11203;SDS011;5659;49.408;11.116;2022-08-01T09:19:18;4.28;;;1.20;;
11203;SDS011;5659;49.408;11.116;2022-08-01T09:21:57;1.73;;;1.33;;
11203;SDS011;5659;49.408;11.116;2022-08-01T09:24:24;2.33;;;1.38;;
11203;SDS011;5659;49.408;11.116;2022-08-01T09:26:50;3.05;;;1.50;;
11203;SDS011;5659;49.408;11.116;2022-08-01T09:29:18;2.55;;;1.27;;
11203;SDS011;5659;49.408;11.116;2022-08-01T09:31:45;1.42;;;1.23;;
11203;SDS011;5659;49.408;11.116;2022-08-01T09:34:12;1.73;;;1.45;;
11203;SDS011;5659;49.408;11.116;2022-08-01T09:36:51;2.13;;;1.10;;
11203;SDS011;5659;49.408;11.116;2022-08-01T09:39:19;1.58;;;1.10;;
11203;SDS011;5659;49.408;11.116;2022-08-01T09:41:45;3.50;;;1.40;;
11203;SDS011;5659;49.408;11.116;2022-08-01T09:44:12;1.52;;;1.30;;
11203;SDS011;5659;49.408;11.116;2022-08-01T09:46:51;1.33;;;1.20;;
11203;SDS011;5659;49.408;11.116;2022-08-01T09:49:26;1.13;;;0.93;;
11203;SDS011;5659;49.408;11.116;2022-08-01T09:51:53;2.45;;;1.08;;
11203;SDS011;5659;49.408;11.116;2022-08-01T09:54:29;1.80;;;1.02;;
11203;SDS011;5659;49.408;11.116;2022-08-01T09:56:57;1.23;;;1.00;;
11203;SDS011;5659;49.408;11.116;2022-08-01T09:59:35;1.88;;;1.15;;
11203;SDS011;5659;49.408;11.116;2022-08-01T10:02:02;3.33;;;1.23;;
11203;SDS011;5659;49.408;11.116;2022-08-01T10:04:28;2.45;;;1.40;;
11203;SDS011;5659;49.408;11.116;2022-08-01T10:07:02;1.90;;;1.00;;
11203;SDS011;5659;49.408;11.116;2022-08-01T10:09:29;2.60;;;1.00;;
11203;SDS011;5659;49.408;11.116;2022-08-01T10:11:56;1.60;;;1.00;;
11203;SDS011;5659;49.408;11.116;2022-08-01T10:14:23;1.80;;;1.10;;
11203;SDS011;5659;49.408;11.116;2022-08-01T10:16:50;2.20;;;1.20;;
11203;SDS011;5659;49.408;11.116;2022-08-01T10:19:16;1.98;;;1.10;;
11203;SDS011;5659;49.408;11.116;2022-08-01T10:21:44;1.70;;;1.15;;
11203;SDS011;5659;49.408;11.116;2022-08-01T10:24:14;1.73;;;1.20;;
11203;SDS011;5659;49.408;11.116;2022-08-01T10:26:40;2.80;;;1.13;;
11203;SDS011;5659;49.408;11.116;2022-08-01T10:29:07;3.47;;;1.25;;
11203;SDS011;5659;49.408;11.116;2022-08-01T10:31:33;2.88;;;1.00;;
11203;SDS011;5659;49.408;11.116;2022-08-01T10:33:59;1.85;;;1.10;;
11203;SDS011;5659;49.408;11.116;2022-08-01T10:36:26;5.45;;;1.25;;
11203;SDS011;5659;49.408;11.116;2022-08-01T10:38:54;4.20;;;1.13;;
11203;SDS011;5659;49.408;11.116;2022-08-01T10:41:20;1.27;;;0.98;;
11203;SDS011;5659;49.408;11.116;2022-08-01T10:43:46;1.40;;;1.30;;
11203;SDS011;5659;49.408;11.116;2022-08-01T10:46:12;2.28;;;1.27;;
11203;SDS011;5659;49.408;11.116;2022-08-01T10:48:46;4.10;;;1.30;;
11203;SDS011;5659;49.408;11.116;2022-08-01T10:51:15;2.15;;;1.20;;
11203;SDS011;5659;49.408;11.116;2022-08-01T10:53:50;2.00;;;1.23;;
11203;SDS011;5659;49.408;11.116;2022-08-01T10:56:16;1.30;;;1.08;;
11203;SDS011;5659;49.408;11.116;2022-08-01T10:58:43;2.83;;;1.10;;
11203;SDS011;5659;49.408;11.116;2022-08-01T11:01:22;1.85;;;1.10;;
11203;SDS011;5659;49.408;11.116;2022-08-01T11:09:03;1.90;;;0.90;;
11203;SDS011;5659;49.408;11.116;2022-08-01T11:11:29;1.98;;;1.10;;
11203;SDS011;5659;49.408;11.116;2022-08-01T11:14:02;6.35;;;1.20;;
11203;SDS011;5659;49.408;11.116;2022-08-01T11:16:37;7.85;;;1.33;;
11203;SDS011;5659;49.408;11.116;2022-08-01T11:19:04;2.95;;;1.48;;
11203;SDS011;5659;49.408;11.116;2022-08-01T11:24:15;3.80;;;1.10;;
11203;SDS011;5659;49.408;11.116;2022-08-01T11:26:41;1.55;;;1.20;;
11203;SDS011;5659;49.408;11.116;2022-08-01T11:29:27;1.33;;;1.00;;
11203;SDS011;5659;49.408;11.116;2022-08-01T11:31:53;1.35;;;1.00;;
11203;SDS011;5659;49.408;11.116;2022-08-01T11:34:54;1.85;;;1.10;;
11203;SDS011;5659;49.408;11.116;2022-08-01T11:37:25;1.50;;;1.05;;
11203;SDS011;5659;49.408;11.116;2022-08-01T11:42:36;1.45;;;1.20;;
11203;SDS011;5659;49.408;11.116;2022-08-01T11:45:02;2.75;;;1.20;;
11203;SDS011;5659;49.408;11.116;2022-08-01T11:52:59;0.80;;;0.80;;
11203;SDS011;5659;49.408;11.116;2022-08-01T11:55:26;1.98;;;1.40;;
11203;SDS011;5659;49.408;11.116;2022-08-01T11:58:00;2.70;;;1.20;;
11203;SDS011;5659;49.408;11.116;2022-08-01T12:00:26;3.60;;;1.20;;
11203;SDS011;5659;49.408;11.116;2022-08-01T12:02:59;2.75;;;1.10;;
11203;SDS011;5659;49.408;11.116;2022-08-01T12:05:26;2.30;;;1.00;;
11203;SDS011;5659;49.408;11.116;2022-08-01T12:07:52;1.20;;;1.00;;
11203;SDS011;5659;49.408;11.116;2022-08-01T12:10:20;4.20;;;1.15;;
11203;SDS011;5659;49.408;11.116;2022-08-01T12:12:47;3.08;;;1.40;;
11203;SDS011;5659;49.408;11.116;2022-08-01T12:15:13;2.85;;;1.42;;
11203;SDS011;5659;49.408;11.116;2022-08-01T12:17:41;2.55;;;1.30;;
11203;SDS011;5659;49.408;11.116;2022-08-01T12:20:08;3.38;;;1.15;;
11203;SDS011;5659;49.408;11.116;2022-08-01T12:22:34;3.28;;;1.00;;
11203;SDS011;5659;49.408;11.116;2022-08-01T12:25:10;1.00;;;0.90;;
11203;SDS011;5659;49.408;11.116;2022-08-01T12:27:37;2.38;;;0.93;;
11203;SDS011;5659;49.408;11.116;2022-08-01T12:30:10;1.13;;;1.02;;
11203;SDS011;5659;49.408;11.116;2022-08-01T12:32:37;3.83;;;0.93;;
11203;SDS011;5659;49.408;11.116;2022-08-01T12:35:08;1.50;;;1.20;;
11203;SDS011;5659;49.408;11.116;2022-08-01T12:37:35;1.00;;;0.90;;
11203;SDS011;5659;49.408;11.116;2022-08-01T12:40:01;3.70;;;1.20;;
11203;SDS011;5659;49.408;11.116;2022-08-01T12:42:28;1.27;;;1.10;;
11203;SDS011;5659;49.408;11.116;2022-08-01T12:44:53;2.85;;;1.10;;
11203;SDS011;5659;49.408;11.116;2022-08-01T12:47:20;2.85;;;1.27;;
11203;SDS011;5659;49.408;11.116;2022-08-01T12:49:46;2.72;;;1.30;;
11203;SDS011;5659;49.408;11.116;2022-08-01T12:52:13;1.83;;;1.15;;
11203;SDS011;5659;49.408;11.116;2022-08-01T12:57:27;3.22;;;1.25;;
11203;SDS011;5659;49.408;11.116;2022-08-01T12:59:53;8.68;;;2.03;;
11203;SDS011;5659;49.408;11.116;2022-08-01T13:02:20;2.03;;;1.27;;
11203;SDS011;5659;49.408;11.116;2022-08-01T13:05:06;1.88;;;1.30;;
11203;SDS011;5659;49.408;11.116;2022-08-01T13:07:43;1.58;;;1.02;;
11203;SDS011;5659;49.408;11.116;2022-08-01T13:10:10;2.10;;;1.23;;
11203;SDS011;5659;49.408;11.116;2022-08-01T13:12:37;1.23;;;1.00;;
11203;SDS011;5659;49.408;11.116;2022-08-01T13:15:19;2.95;;;1.27;;
11203;SDS011;5659;49.408;11.116;2022-08-01T13:17:46;2.72;;;1.00;;
11203;SDS011;5659;49.408;11.116;2022-08-01T13:20:25;3.40;;;1.10;;
11203;SDS011;5659;49.408;11.116;2022-08-01T13:22:51;4.47;;;1.15;;
11203;SDS011;5659;49.408;11.116;2022-08-01T13:25:17;1.42;;;1.08;;
11203;SDS011;5659;49.408;11.116;2022-08-01T13:27:43;1.30;;;1.10;;
11203;SDS011;5659;49.408;11.116;2022-08-01T13:30:13;3.15;;;1.10;;
11203;SDS011;5659;49.408;11.116;2022-08-01T13:32:40;2.97;;;1.08;;
11203;SDS011;5659;49.408;11.116;2022-08-01T13:35:08;6.65;;;1.20;;
11203;SDS011;5659;49.408;11.116;2022-08-01T13:37:35;3.08;;;1.20;;
11203;SDS011;5659;49.408;11.116;2022-08-01T13:40:02;1.10;;;1.00;;
11203;SDS011;5659;49.408;11.116;2022-08-01T13:42:28;2.70;;;1.17;;
11203;SDS011;5659;49.408;11.116;2022-08-01T13:44:54;2.40;;;1.33;;
11203;SDS011;5659;49.408;11.116;2022-08-01T13:47:20;4.38;;;1.40;;
11203;SDS011;5659;49.408;11.116;2022-08-01T13:49:46;1.98;;;1.30;;
11203;SDS011;5659;49.408;11.116;2022-08-01T13:52:12;1.52;;;1.00;;
11203;SDS011;5659;49.408;11.116;2022-08-01T13:54:38;3.13;;;1.20;;
11203;SDS011;5659;49.408;11.116;2022-08-01T13:57:04;5.60;;;1.20;;
11203;SDS011;5659;49.408;11.116;2022-08-01T13:59:30;4.13;;;1.55;;
11203;SDS011;5659;49.408;11.116;2022-08-01T14:01:56;4.72;;;1.23;;
11203;SDS011;5659;49.408;11.116;2022-08-01T14:04:22;4.47;;;1.50;;
11203;SDS011;5659;49.408;11.116;2022-08-01T14:06:48;1.20;;;1.10;;
11203;SDS011;5659;49.408;11.116;2022-08-01T14:09:14;1.42;;;1.13;;
11203;SDS011;5659;49.408;11.116;2022-08-01T14:11:42;1.00;;;0.90;;
11203;SDS011;5659;49.408;11.116;2022-08-01T14:14:08;2.05;;;1.20;;
11203;SDS011;5659;49.408;11.116;2022-08-01T14:16:34;3.45;;;1.50;;
11203;SDS011;5659;49.408;11.116;2022-08-01T14:19:02;1.90;;;1.10;;
11203;SDS011;5659;49.408;11.116;2022-08-01T14:21:28;3.47;;;1.20;;
11203;SDS011;5659;49.408;11.116;2022-08-01T14:23:54;1.10;;;1.00;;
11203;SDS011;5659;49.408;11.116;2022-08-01T14:26:20;1.60;;;1.10;;
11203;SDS011;5659;49.408;11.116;2022-08-01T14:28:46;2.70;;;1.15;;
11203;SDS011;5659;49.408;11.116;2022-08-01T14:31:12;3.45;;;1.20;;
11203;SDS011;5659;49.408;11.116;2022-08-01T14:33:38;2.00;;;1.00;;
11203;SDS011;5659;49.408;11.116;2022-08-01T14:36:04;1.23;;;1.10;;
11203;SDS011;5659;49.408;11.116;2022-08-01T14:38:30;1.55;;;1.10;;
11203;SDS011;5659;49.408;11.116;2022-08-01T14:40:56;2.25;;;1.17;;
11203;SDS011;5659;49.408;11.116;2022-08-01T14:43:22;0.90;;;0.90;;
11203;SDS011;5659;49.408;11.116;2022-08-01T14:45:48;2.60;;;1.10;;
11203;SDS011;5659;49.408;11.116;2022-08-01T14:48:18;1.83;;;1.00;;
11203;SDS011;5659;49.408;11.116;2022-08-01T14:50:44;4.65;;;1.27;;
11203;SDS011;5659;49.408;11.116;2022-08-01T14:53:10;1.83;;;1.13;;
11203;SDS011;5659;49.408;11.116;2022-08-01T14:55:36;0.90;;;0.90;;
11203;SDS011;5659;49.408;11.116;2022-08-01T14:58:02;1.30;;;0.95;;
11203;SDS011;5659;49.408;11.116;2022-08-01T15:00:28;1.35;;;0.98;;
11203;SDS011;5659;49.408;11.116;2022-08-01T15:02:54;1.95;;;0.90;;
11203;SDS011;5659;49.408;11.116;2022-08-01T15:05:20;1.52;;;1.00;;
11203;SDS011;5659;49.408;11.116;2022-08-01T15:07:46;5.13;;;0.95;;
11203;SDS011;5659;49.408;11.116;2022-08-01T15:10:12;1.58;;;0.98;;
11203;SDS011;5659;49.408;11.116;2022-08-01T15:12:40;4.07;;;0.80;;
11203;SDS011;5659;49.408;11.116;2022-08-01T15:15:06;2.92;;;0.90;;
11203;SDS011;5659;49.408;11.116;2022-08-01T15:17:32;1.30;;;1.00;;